Time;durP1;ratioP1;P1;durP2;ratioP2;P2;SDS_P1;SDS_P2;PMS_P1;PMS_P2;Temp;Humidity;BMP_temperature;BMP_pressure;BME280_temperature;BME280_humidity;BME280_pressure;Samples;Min_cycle;Max_cycle;Signal;HPM_P1;HPM_P2
2022/05/06 00:01:52;;;;;;;2.55;1.77;;;;;;;11.75;32.79;99914.63;1662908;85;20917;-66
2022/05/06 00:04:20;;;;;;;2.55;1.98;;;;;;;11.74;32.74;99909.80;1678419;85;21435;-65
2022/05/06 00:06:46;;;;;;;1.85;1.47;;;;;;;11.72;32.78;99910.96;1678508;85;20952;-65
2022/05/06 00:09:13;;;;;;;1.90;1.60;;;;;;;11.70;32.83;99908.97;1678196;85;21067;-70
2022/05/06 00:11:39;;;;;;;1.80;1.57;;;;;;;11.68;32.87;99902.92;1669645;85;21561;-69
2022/05/06 00:14:06;;;;;;;3.35;1.92;;;;;;;11.67;32.89;99906.61;1669006;85;21152;-69
2022/05/06 00:16:33;;;;;;;4.08;1.98;;;;;;;11.64;32.90;99901.11;1677279;85;21068;-66
2022/05/06 00:19:00;;;;;;;4.30;1.98;;;;;;;11.64;32.93;99901.60;1674971;85;20964;-66
2022/05/06 00:21:26;;;;;;;2.10;1.87;;;;;;;11.62;32.91;99903.61;1670785;85;21022;-66
2022/05/06 00:23:54;;;;;;;2.85;1.50;;;;;;;11.58;32.92;99903.09;1676054;85;21301;-70
2022/05/06 00:26:20;;;;;;;3.83;1.90;;;;;;;11.56;32.97;99902.44;1673387;85;20929;-66
2022/05/06 00:28:47;;;;;;;4.90;2.70;;;;;;;11.54;33.02;99900.45;1675968;85;20976;-67
2022/05/06 00:31:13;;;;;;;3.02;2.35;;;;;;;11.55;32.94;99898.09;1686182;83;21030;-65
2022/05/06 00:33:40;;;;;;;3.37;1.98;;;;;;;11.56;32.92;99900.27;1697634;83;21474;-66
2022/05/06 00:36:08;;;;;;;3.70;1.98;;;;;;;11.55;32.83;99900.76;1682191;83;21506;-67
2022/05/06 00:38:35;;;;;;;2.47;2.10;;;;;;;11.57;32.74;99904.11;1686510;85;20896;-68
2022/05/06 00:41:03;;;;;;;7.75;3.17;;;;;;;11.57;32.81;99900.61;1685754;85;21137;-65
2022/05/06 00:43:30;;;;;;;2.55;1.92;;;;;;;11.55;32.79;99902.09;1676884;85;21016;-65
2022/05/06 00:45:57;;;;;;;3.83;1.80;;;;;;;11.55;32.84;99906.09;1686209;85;21047;-66
2022/05/06 00:48:27;;;;;;;5.85;2.08;;;;;;;11.53;32.89;99906.77;1686212;85;21266;-68
2022/05/06 00:50:55;;;;;;;2.00;1.60;;;;;;;11.50;32.87;99903.09;1686060;85;21007;-68
2022/05/06 00:53:22;;;;;;;3.40;2.12;;;;;;;11.51;32.89;99908.77;1661840;85;20904;-66
2022/05/06 00:55:49;;;;;;;2.17;1.90;;;;;;;11.49;32.92;99902.78;1684546;85;20908;-66
2022/05/06 00:58:15;;;;;;;2.65;2.02;;;;;;;11.47;32.97;99902.09;1686537;85;21016;-66
2022/05/06 01:00:42;;;;;;;2.37;1.85;;;;;;;11.46;33.04;99901.77;1685032;85;21717;-65
2022/05/06 01:03:08;;;;;;;4.50;1.92;;;;;;;11.44;33.08;99903.77;1686345;85;20959;-65
2022/05/06 01:05:36;;;;;;;3.52;2.02;;;;;;;11.44;33.11;99904.27;1686544;85;21458;-67
2022/05/06 01:08:04;;;;;;;4.47;2.05;;;;;;;11.43;33.13;99906.59;1686353;85;21076;-67
2022/05/06 01:10:31;;;;;;;2.45;1.70;;;;;;;11.40;33.15;99903.75;1676404;85;20964;-68
2022/05/06 01:12:58;;;;;;;2.90;2.30;;;;;;;11.38;33.20;99905.76;1686748;84;21163;-68
2022/05/06 01:15:28;;;;;;;2.08;1.87;;;;;;;11.36;33.18;99903.77;1686320;84;20992;-67
2022/05/06 01:18:00;;;;;;;4.50;2.05;;;;;;;11.36;33.19;99905.09;1685078;85;20972;-66
2022/05/06 01:20:26;;;;;;;2.98;1.95;;;;;;;11.34;33.24;99900.41;1686416;85;21015;-66
2022/05/06 01:22:56;;;;;;;4.22;1.70;;;;;;;11.32;33.33;99898.91;1686408;84;21075;-65
2022/05/06 01:25:22;;;;;;;3.00;2.05;;;;;;;11.33;33.30;99900.59;1686409;85;21224;-65
2022/05/06 01:27:57;;;;;;;5.95;2.20;;;;;;;11.30;33.36;99895.09;1679752;84;21557;-64
2022/05/06 01:30:45;;;;;;;2.50;1.80;;;;;;;11.29;33.42;99893.94;1678526;85;21129;-65
2022/05/06 01:33:17;;;;;;;3.60;1.95;;;;;;;11.27;33.42;99894.58;1658678;85;20909;-65
2022/05/06 01:35:49;;;;;;;3.80;2.10;;;;;;;11.25;33.50;99888.59;1652437;85;21508;-64
2022/05/06 01:38:19;;;;;;;2.42;1.70;;;;;;;11.20;33.54;99890.42;1652486;85;21252;-64
2022/05/06 01:40:48;;;;;;;2.37;1.80;;;;;;;11.18;33.61;99888.43;1653808;85;21141;-65
2022/05/06 01:43:16;;;;;;;5.37;2.15;;;;;;;11.19;33.62;99891.41;1655625;85;21546;-64
2022/05/06 01:45:45;;;;;;;2.22;1.60;;;;;;;11.16;33.67;99893.91;1678813;85;21463;-64
2022/05/06 01:48:13;;;;;;;3.70;2.08;;;;;;;11.16;33.68;99893.06;1659787;85;21012;-64
2022/05/06 01:50:41;;;;;;;3.40;2.10;;;;;;;11.14;33.75;99889.73;1678698;85;21145;-67
2022/05/06 01:53:09;;;;;;;3.22;1.90;;;;;;;11.13;33.79;99886.76;1677240;85;21017;-64
2022/05/06 01:55:37;;;;;;;3.05;2.00;;;;;;;11.12;33.87;99886.41;1678837;85;20920;-65
2022/05/06 01:58:06;;;;;;;4.00;2.22;;;;;;;11.11;33.92;99882.91;1679038;85;20965;-65
2022/05/06 02:00:36;;;;;;;5.03;1.90;;;;;;;11.10;33.90;99888.41;1678549;85;20901;-66
2022/05/06 02:03:04;;;;;;;2.70;1.80;;;;;;;11.07;34.04;99886.07;1673377;85;22156;-66
2022/05/06 02:05:33;;;;;;;5.37;2.10;;;;;;;11.07;34.14;99888.73;1652022;85;21008;-65
2022/05/06 02:07:59;;;;;;;4.00;2.10;;;;;;;11.06;34.16;99888.39;1652540;85;21633;-65
2022/05/06 02:10:26;;;;;;;2.95;2.27;;;;;;;11.00;34.26;99892.53;1652485;85;21032;-65
2022/05/06 02:12:57;;;;;;;3.08;1.77;;;;;;;10.97;34.35;99893.38;1675574;85;21057;-65
2022/05/06 02:15:26;;;;;;;3.67;2.00;;;;;;;10.96;34.41;99895.20;1657363;85;21022;-65
2022/05/06 02:17:53;;;;;;;2.52;1.80;;;;;;;10.95;34.41;99896.18;1652315;85;21035;-65
2022/05/06 02:20:22;;;;;;;3.35;2.10;;;;;;;10.92;34.44;99885.86;1651914;85;20956;-65
2022/05/06 02:23:06;;;;;;;3.85;2.10;;;;;;;10.91;34.48;99887.36;1677605;85;20977;-65
2022/05/06 02:25:36;;;;;;;2.15;1.70;;;;;;;10.89;34.58;99892.02;1678119;85;20897;-65
2022/05/06 02:28:14;;;;;;;2.65;1.85;;;;;;;10.85;34.66;99895.48;1682966;85;21861;-65
2022/05/06 02:33:26;;;;;;;12.20;3.12;;;;;;;10.82;34.77;99887.83;1599915;86;21082;-66
2022/05/06 02:35:59;;;;;;;6.50;2.22;;;;;;;10.80;34.80;99886.32;1681302;85;21000;-65
2022/05/06 02:38:27;;;;;;;3.50;1.82;;;;;;;10.78;34.83;99886.50;1683829;85;20993;-64
2022/05/06 02:40:55;;;;;;;1.45;1.30;;;;;;;10.78;34.92;99887.83;1684101;85;21851;-66
2022/05/06 02:43:22;;;;;;;3.87;1.60;;;;;;;10.76;34.98;99887.16;1683941;85;20948;-66
2022/05/06 02:45:51;;;;;;;6.37;4.83;;;;;;;10.77;35.03;99891.47;1668335;84;21000;-67
2022/05/06 02:48:18;;;;;;;4.17;3.47;;;;;;;10.78;35.05;99891.82;1657494;85;21455;-68
2022/05/06 02:50:47;;;;;;;4.90;2.42;;;;;;;10.77;35.06;99890.14;1657437;85;20992;-68
2022/05/06 02:53:14;;;;;;;2.85;2.17;;;;;;;10.79;35.11;99891.33;1640178;86;21443;-68
2022/05/06 02:55:41;;;;;;;4.28;1.90;;;;;;;10.79;35.14;99893.50;1662130;85;20924;-67
2022/05/06 02:58:10;;;;;;;2.35;2.12;;;;;;;10.82;35.20;99887.83;1657449;85;20968;-64
2022/05/06 03:00:36;;;;;;;2.90;2.08;;;;;;;10.87;35.21;99894.02;1646446;85;20980;-67
2022/05/06 03:03:05;;;;;;;2.30;1.70;;;;;;;10.93;35.15;99890.19;1680838;85;21412;-65
2022/05/06 03:05:33;;;;;;;2.22;2.00;;;;;;;10.99;35.10;99892.70;1683834;85;21415;-64
2022/05/06 03:08:01;;;;;;;7.22;1.90;;;;;;;11.06;34.98;99889.72;1654250;85;20988;-65
2022/05/06 03:10:29;;;;;;;1.85;1.70;;;;;;;11.12;34.92;99897.06;1659481;85;21015;-64
2022/05/06 03:12:58;;;;;;;4.15;2.05;;;;;;;11.20;34.84;99898.91;1679547;85;21055;-65
2022/05/06 03:15:25;;;;;;;4.25;2.27;;;;;;;11.31;34.68;99899.92;1684036;84;21440;-69
2022/05/06 03:17:55;;;;;;;2.50;2.30;;;;;;;11.43;34.54;99904.77;1667670;85;21367;-63
2022/05/06 03:20:22;;;;;;;3.00;1.98;;;;;;;11.57;34.29;99905.45;1657597;85;21024;-65
2022/05/06 03:22:50;;;;;;;4.40;2.25;;;;;;;11.73;34.20;99907.31;1678418;85;20967;-69
2022/05/06 03:25:17;;;;;;;4.58;2.27;;;;;;;11.89;33.99;99903.80;1683993;85;20992;-69
2022/05/06 03:27:59;;;;;;;4.75;1.95;;;;;;;12.02;33.79;99903.59;1680757;85;21065;-67
2022/05/06 03:30:27;;;;;;;6.75;2.08;;;;;;;12.18;33.62;99917.40;1670348;85;22263;-66
2022/05/06 03:32:55;;;;;;;2.08;1.70;;;;;;;12.35;33.29;99909.70;1672975;85;21062;-65
2022/05/06 03:35:22;;;;;;;4.03;2.30;;;;;;;12.54;33.06;99914.63;1678771;85;20953;-65
2022/05/06 03:37:50;;;;;;;3.58;2.55;;;;;;;12.74;32.84;99910.56;1670082;85;21076;-67
2022/05/06 03:40:17;;;;;;;2.92;2.12;;;;;;;12.92;32.51;99911.64;1659169;85;20945;-66
2022/05/06 03:42:44;;;;;;;3.85;1.90;;;;;;;13.08;32.44;99917.43;1671365;85;21171;-69
2022/05/06 03:45:11;;;;;;;3.02;2.10;;;;;;;13.22;32.27;99919.36;1679012;85;21581;-67
2022/05/06 03:47:40;;;;;;;3.37;1.95;;;;;;;13.35;32.01;99915.07;1670411;85;20988;-67
2022/05/06 03:52:55;;;;;;;3.27;2.08;;;;;;;13.52;31.60;99919.31;1676929;84;21090;-69
2022/05/06 03:55:22;;;;;;;1.98;1.77;;;;;;;13.67;31.49;99915.84;1678714;85;21151;-66
2022/05/06 03:57:50;;;;;;;3.30;2.40;;;;;;;13.81;31.28;99917.23;1678821;85;20999;-67
2022/05/06 04:00:23;;;;;;;3.67;1.90;;;;;;;13.97;31.03;99913.59;1677459;85;20989;-66
2022/05/06 04:02:49;;;;;;;3.33;2.20;;;;;;;14.19;30.98;99924.23;1678608;85;21027;-70
2022/05/06 04:05:17;;;;;;;4.10;1.98;;;;;;;14.45;30.56;99925.16;1678373;85;21051;-67
2022/05/06 04:07:44;;;;;;;6.53;2.17;;;;;;;14.74;30.35;99918.95;1678769;85;22105;-66
2022/05/06 04:10:11;;;;;;;3.85;1.70;;;;;;;15.09;30.10;99918.67;1676176;85;20952;-67
2022/05/06 04:12:37;;;;;;;2.98;2.12;;;;;;;15.47;29.56;99919.31;1673987;85;21475;-65
2022/05/06 04:15:08;;;;;;;2.47;1.80;;;;;;;15.79;28.99;99919.64;1678824;85;20925;-65
2022/05/06 04:17:35;;;;;;;4.35;1.77;;;;;;;16.12;28.59;99920.41;1678851;85;21034;-68
2022/05/06 04:25:35;;;;;;;5.15;2.10;;;;;;;16.96;27.58;99915.25;1651418;85;20944;-67
2022/05/06 04:28:03;;;;;;;4.70;2.00;;;;;;;17.26;26.98;99922.80;1654758;85;20967;-66
2022/05/06 04:30:30;;;;;;;3.70;2.20;;;;;;;17.54;26.88;99920.02;1661497;85;21040;-65
2022/05/06 04:33:03;;;;;;;4.08;2.10;;;;;;;17.88;26.22;99917.13;1682976;85;21157;-66
2022/05/06 04:35:30;;;;;;;4.40;2.55;;;;;;;18.12;25.88;99909.48;1683827;85;21027;-65
2022/05/06 04:37:57;;;;;;;3.90;2.10;;;;;;;18.29;25.78;99912.88;1683840;85;20967;-68
2022/05/06 04:40:24;;;;;;;3.12;2.00;;;;;;;18.51;25.45;99908.63;1683913;85;20913;-68
2022/05/06 04:42:51;;;;;;;2.95;1.87;;;;;;;18.73;25.04;99909.48;1680544;85;22208;-67
2022/05/06 04:45:20;;;;;;;2.62;2.00;;;;;;;18.93;24.73;99907.53;1683879;85;21158;-66
2022/05/06 04:47:49;;;;;;;2.65;1.92;;;;;;;19.13;24.48;99912.85;1681935;85;20936;-66
2022/05/06 04:50:17;;;;;;;6.05;1.95;;;;;;;19.30;24.29;99907.25;1683671;85;21439;-66
2022/05/06 04:52:43;;;;;;;3.75;2.40;;;;;;;19.56;23.70;99910.34;1683792;85;21037;-65
2022/05/06 04:55:10;;;;;;;6.35;1.77;;;;;;;19.66;23.57;99912.03;1684110;85;21078;-66
2022/05/06 04:57:37;;;;;;;5.25;2.58;;;;;;;19.69;23.70;99912.95;1684228;85;21195;-65
2022/05/06 05:00:05;;;;;;;3.60;1.80;;;;;;;19.68;23.48;99914.81;1683844;85;20936;-67
2022/05/06 05:02:33;;;;;;;3.92;2.00;;;;;;;19.71;23.64;99910.33;1653969;85;21116;-67
2022/05/06 05:05:00;;;;;;;3.37;2.05;;;;;;;19.89;23.65;99907.41;1683958;85;20964;-68
2022/05/06 05:07:29;;;;;;;3.10;2.00;;;;;;;20.09;23.41;99908.90;1683818;85;21020;-68
2022/05/06 05:09:57;;;;;;;2.12;1.87;;;;;;;20.32;23.23;99906.94;1683883;85;20980;-65
2022/05/06 05:12:24;;;;;;;3.40;2.10;;;;;;;20.62;22.92;99905.16;1683753;85;20999;-65
2022/05/06 05:14:52;;;;;;;3.80;1.98;;;;;;;20.90;22.69;99902.77;1683857;85;20960;-69
2022/05/06 05:17:20;;;;;;;4.45;2.00;;;;;;;21.13;22.73;99909.37;1673413;84;21031;-67
2022/05/06 05:19:47;;;;;;;3.47;2.05;;;;;;;21.27;22.22;99915.75;1635664;85;20989;-66
2022/05/06 05:22:14;;;;;;;2.55;1.75;;;;;;;21.31;21.85;99910.69;1676504;85;21259;-69
2022/05/06 05:24:43;;;;;;;6.55;2.35;;;;;;;21.31;22.06;99914.73;1683683;85;20999;-69
2022/05/06 05:27:10;;;;;;;3.87;2.62;;;;;;;21.39;21.23;99917.13;1684013;84;20968;-65
2022/05/06 05:29:36;;;;;;;4.42;2.98;;;;;;;21.45;21.41;99914.87;1651643;85;20992;-69
2022/05/06 05:32:05;;;;;;;7.05;3.30;;;;;;;21.63;21.02;99924.28;1659075;84;20951;-69
2022/05/06 05:34:32;;;;;;;4.72;3.90;;;;;;;21.82;20.88;99927.75;1652898;86;21069;-64
2022/05/06 05:36:58;;;;;;;9.65;4.53;;;;;;;22.02;20.20;99918.28;1669821;85;21007;-66
2022/05/06 05:39:25;;;;;;;8.00;3.40;;;;;;;22.28;19.93;99924.30;1670265;86;20993;-63
2022/05/06 05:41:54;;;;;;;7.15;3.90;;;;;;;22.54;19.47;99912.97;1660856;86;21007;-68
2022/05/06 05:49:54;;;;;;;7.45;3.50;;;;;;;22.57;18.83;99915.22;1644293;86;20956;-69
2022/05/06 05:52:21;;;;;;;5.75;4.00;;;;;;;22.40;19.00;99929.17;1646420;86;20947;-69
2022/05/06 05:54:49;;;;;;;5.10;3.22;;;;;;;22.35;19.25;99931.24;1668987;86;20940;-66
2022/05/06 05:57:17;;;;;;;5.12;2.83;;;;;;;22.41;19.31;99918.11;1663102;85;20956;-65
2022/05/06 05:59:43;;;;;;;4.20;2.60;;;;;;;22.49;19.20;99920.47;1644043;86;22151;-65
2022/05/06 06:02:11;;;;;;;4.47;2.45;;;;;;;22.54;19.06;99923.81;1696222;84;21000;-68
2022/05/06 06:04:41;;;;;;;6.92;2.55;;;;;;;22.58;19.16;99927.69;1669101;85;21043;-69
2022/05/06 06:07:09;;;;;;;11.10;2.60;;;;;;;22.71;19.05;99932.37;1670008;85;20881;-69
2022/05/06 06:09:36;;;;;;;9.45;2.42;;;;;;;22.84;18.98;99915.56;1670366;86;20908;-68
2022/05/06 06:12:07;;;;;;;5.30;3.08;;;;;;;23.00;19.28;99915.63;1670867;84;21785;-69
2022/05/06 06:14:35;;;;;;;4.83;2.60;;;;;;;23.25;19.10;99909.89;1670443;85;20908;-65
2022/05/06 06:17:04;;;;;;;4.67;2.50;;;;;;;23.49;18.98;99918.80;1670341;86;21514;-67
2022/05/06 06:19:31;;;;;;;4.12;2.83;;;;;;;23.70;18.61;99915.38;1670266;86;20992;-67
2022/05/06 06:21:58;;;;;;;5.20;2.33;;;;;;;23.98;18.38;99909.05;1670262;86;21050;-65
2022/05/06 06:24:28;;;;;;;4.58;1.82;;;;;;;24.14;18.28;99909.09;1653034;86;21153;-66
2022/05/06 06:26:58;;;;;;;2.00;1.70;;;;;;;24.38;18.00;99913.78;1647466;86;21652;-67
2022/05/06 06:29:29;;;;;;;2.95;1.70;;;;;;;24.58;17.86;99911.91;1670526;83;21668;-67
2022/05/06 06:31:56;;;;;;;3.67;1.75;;;;;;;24.85;17.57;99914.19;1672687;84;21459;-69
2022/05/06 06:34:22;;;;;;;2.33;1.92;;;;;;;25.09;17.36;99900.09;1661659;86;20964;-68
2022/05/06 06:36:49;;;;;;;4.22;1.90;;;;;;;25.40;16.97;99902.59;1663933;84;21268;-68
2022/05/06 06:39:18;;;;;;;6.97;2.08;;;;;;;25.77;16.88;99891.82;1670390;85;20937;-66
2022/05/06 06:41:47;;;;;;;4.58;1.60;;;;;;;26.20;15.77;99899.82;1670577;86;21429;-67
2022/05/06 06:44:13;;;;;;;2.52;1.45;;;;;;;26.36;15.35;99911.66;1643938;86;21077;-66
2022/05/06 06:46:45;;;;;;;5.28;1.67;;;;;;;26.38;15.13;99912.78;1663658;85;20972;-65
2022/05/06 06:49:30;;;;;;;3.55;1.55;;;;;;;26.38;15.00;99914.97;1670981;84;21825;-65
2022/05/06 06:52:06;;;;;;;4.85;1.70;;;;;;;26.41;14.82;99910.32;1655374;86;20929;-68
2022/05/06 06:54:33;;;;;;;5.15;1.82;;;;;;;26.34;14.67;99912.47;1671920;84;21007;-68
2022/05/06 06:56:59;;;;;;;5.15;2.20;;;;;;;26.07;14.76;99913.07;1671454;84;21600;-66
2022/05/06 06:59:26;;;;;;;5.20;1.62;;;;;;;25.90;14.83;99933.63;1664735;85;21040;-64
2022/05/06 07:01:52;;;;;;;3.52;2.22;;;;;;;25.66;15.13;99912.70;1664585;84;21854;-66
2022/05/06 07:04:18;;;;;;;6.50;1.80;;;;;;;25.40;15.43;99915.39;1668357;85;21038;-64
2022/05/06 07:12:15;;;;;;;3.27;2.22;;;;;;;25.71;15.31;99927.73;1670032;85;20912;-65
2022/05/06 07:14:42;;;;;;;3.85;1.57;;;;;;;26.02;15.16;99925.30;1670095;86;21148;-65
2022/05/06 07:17:09;;;;;;;7.58;1.90;;;;;;;26.31;15.06;99914.34;1669829;86;20933;-65
2022/05/06 07:19:36;;;;;;;2.90;1.55;;;;;;;26.60;14.90;99924.36;1670052;85;20960;-64
2022/05/06 07:22:03;;;;;;;2.17;1.45;;;;;;;26.98;14.69;99914.51;1669956;86;21008;-65
2022/05/06 07:24:32;;;;;;;5.92;1.98;;;;;;;27.47;14.33;99913.05;1667166;85;21020;-68
2022/05/06 07:26:58;;;;;;;2.62;1.87;;;;;;;27.96;14.22;99909.27;1669835;85;21095;-68
2022/05/06 07:29:25;;;;;;;6.80;1.60;;;;;;;28.48;14.03;99914.98;1658778;84;21496;-63
2022/05/06 07:31:51;;;;;;;3.22;1.45;;;;;;;28.93;13.67;99904.48;1669823;85;21066;-68
2022/05/06 07:34:18;;;;;;;1.27;1.15;;;;;;;29.28;13.58;99898.31;1669096;86;21015;-69
2022/05/06 07:36:45;;;;;;;6.28;1.95;;;;;;;29.50;13.19;99899.28;1669933;86;20936;-69
2022/05/06 07:39:14;;;;;;;2.62;1.52;;;;;;;29.74;13.34;99900.77;1658041;86;21234;-70
2022/05/06 07:41:41;;;;;;;4.12;1.60;;;;;;;30.18;12.90;99891.92;1652414;85;21027;-68
2022/05/06 07:44:08;;;;;;;4.55;1.77;;;;;;;30.48;12.48;99893.01;1669731;86;20913;-68
2022/05/06 07:46:36;;;;;;;4.28;1.62;;;;;;;30.78;12.68;99908.34;1669631;86;21559;-66
2022/05/06 07:49:03;;;;;;;3.45;1.50;;;;;;;31.16;12.13;99899.63;1664935;84;20957;-68
2022/05/06 07:51:29;;;;;;;5.33;1.70;;;;;;;31.35;11.97;99897.73;1681613;84;21558;-67
2022/05/06 07:53:56;;;;;;;3.27;1.45;;;;;;;31.43;11.94;99909.44;1670543;84;20935;-66
2022/05/06 07:56:24;;;;;;;2.05;1.40;;;;;;;31.40;11.71;99885.28;1679221;84;20948;-67
2022/05/06 07:58:51;;;;;;;3.15;1.50;;;;;;;31.48;11.93;99897.02;1670247;86;21608;-68
2022/05/06 08:04:32;;;;;;;12.15;2.40;;;;;;;31.51;12.03;99898.36;1663374;86;20908;-67
2022/05/06 08:06:31;;;;;;;4.47;1.42;;;;;;;31.07;12.07;99900.05;1669916;84;20951;-66
2022/05/06 08:08:58;;;;;;;2.85;1.70;;;;;;;30.85;12.51;99902.48;1676190;84;22569;-66
2022/05/06 08:11:24;;;;;;;4.45;1.57;;;;;;;30.82;12.46;99898.94;1659789;84;20952;-66
2022/05/06 08:13:52;;;;;;;1.92;1.32;;;;;;;30.90;12.58;99888.68;1670215;85;21047;-66
2022/05/06 08:16:19;;;;;;;6.37;1.60;;;;;;;31.13;12.45;99900.25;1671400;84;21844;-68
2022/05/06 08:18:46;;;;;;;2.35;1.27;;;;;;;31.20;12.31;99895.75;1668598;86;20965;-63
2022/05/06 08:21:12;;;;;;;4.50;1.47;;;;;;;30.99;12.01;99899.33;1669522;85;21486;-67
2022/05/06 08:23:39;;;;;;;1.62;1.50;;;;;;;30.77;12.26;99889.39;1644027;86;20881;-66
2022/05/06 08:26:05;;;;;;;6.00;1.47;;;;;;;30.88;12.35;99886.79;1644192;86;20924;-66
2022/05/06 08:28:32;;;;;;;4.83;1.90;;;;;;;31.13;11.76;99893.38;1644980;85;21676;-66
2022/05/06 08:30:58;;;;;;;1.57;1.25;;;;;;;31.19;11.97;99885.31;1670097;85;21078;-65
2022/05/06 08:33:26;;;;;;;4.42;1.40;;;;;;;31.12;11.82;99882.94;1679044;85;21430;-66
2022/05/06 08:35:53;;;;;;;1.65;1.45;;;;;;;31.25;12.05;99888.81;1683692;83;20913;-66
2022/05/06 08:38:19;;;;;;;4.00;1.25;;;;;;;31.59;11.66;99890.27;1678858;85;20909;-66
2022/05/06 08:40:49;;;;;;;6.75;1.65;;;;;;;31.74;11.14;99898.27;1678790;85;22005;-67
2022/05/06 08:43:15;;;;;;;3.75;1.55;;;;;;;31.56;11.21;99878.48;1661335;85;20925;-67
2022/05/06 08:51:12;;;;;;;2.20;1.32;;;;;;;30.98;12.07;99875.70;1662316;85;21001;-66
2022/05/06 08:53:42;;;;;;;1.57;1.42;;;;;;;30.45;12.35;99891.42;1678690;85;22271;-66
2022/05/06 08:56:08;;;;;;;4.80;1.55;;;;;;;29.84;12.50;99897.43;1678662;85;20905;-66
2022/05/06 08:58:37;;;;;;;3.62;1.32;;;;;;;29.63;12.66;99890.42;1678734;85;20932;-66
2022/05/06 09:01:09;;;;;;;3.52;1.40;;;;;;;29.93;12.53;99886.09;1678818;85;21012;-67
2022/05/06 09:03:40;;;;;;;11.50;2.10;;;;;;;30.00;12.61;99876.18;1678801;85;20969;-66
2022/05/06 09:06:20;;;;;;;6.05;1.50;;;;;;;30.40;12.59;99876.38;1678832;85;21760;-66
2022/05/06 09:08:47;;;;;;;3.27;1.57;;;;;;;31.06;12.07;99874.50;1678608;85;20905;-66
2022/05/06 09:11:14;;;;;;;2.85;1.27;;;;;;;32.03;11.51;99882.97;1670285;85;21475;-66
2022/05/06 09:13:58;;;;;;;4.78;1.57;;;;;;;31.96;11.36;99883.07;1651701;85;21000;-65
2022/05/06 09:16:43;;;;;;;4.50;1.65;;;;;;;31.75;11.47;99857.28;1661691;85;20999;-66
2022/05/06 09:19:25;;;;;;;5.05;1.45;;;;;;;32.04;11.48;99852.15;1652340;85;21173;-67
2022/05/06 09:22:11;;;;;;;5.22;1.72;;;;;;;32.46;10.83;99858.77;1651573;85;21004;-65
2022/05/06 09:24:38;;;;;;;2.12;1.40;;;;;;;32.34;11.00;99851.02;1671445;85;20941;-65
2022/05/06 09:27:10;;;;;;;2.05;1.70;;;;;;;32.49;11.22;99851.83;1678712;85;20982;-66
2022/05/06 09:29:42;;;;;;;3.37;1.75;;;;;;;32.79;11.12;99864.48;1674931;85;21102;-66
2022/05/06 09:32:24;;;;;;;3.70;1.60;;;;;;;32.85;10.92;99854.97;1670128;86;21795;-67
2022/05/06 09:34:58;;;;;;;3.33;1.80;;;;;;;32.93;10.88;99854.25;1670055;85;20979;-67
2022/05/06 09:37:38;;;;;;;6.03;1.70;;;;;;;32.84;10.81;99846.47;1670335;85;20905;-67
2022/05/06 09:40:12;;;;;;;4.67;1.87;;;;;;;32.73;10.84;99840.91;1669808;85;21011;-67
2022/05/06 09:42:45;;;;;;;6.47;1.80;;;;;;;32.75;10.68;99833.15;1670391;85;20944;-66
2022/05/06 09:45:14;;;;;;;5.85;1.40;;;;;;;32.81;11.08;99842.95;1670314;85;22092;-66
2022/05/06 09:47:42;;;;;;;5.53;1.35;;;;;;;33.12;10.90;99839.55;1670261;86;21039;-66
2022/05/06 09:50:10;;;;;;;6.55;1.52;;;;;;;33.52;10.78;99835.30;1670272;85;21411;-65
2022/05/06 09:52:37;;;;;;;4.42;1.90;;;;;;;33.94;10.60;99840.90;1670285;86;20964;-67
2022/05/06 09:55:05;;;;;;;2.77;2.22;;;;;;;34.48;10.15;99835.59;1670433;86;21119;-68
2022/05/06 09:57:35;;;;;;;2.58;1.60;;;;;;;34.54;10.19;99844.55;1670237;85;21160;-64
2022/05/06 10:00:02;;;;;;;2.85;1.40;;;;;;;34.19;10.31;99838.05;1670237;85;21327;-67
2022/05/06 10:02:32;;;;;;;2.10;1.40;;;;;;;33.99;10.41;99831.11;1670479;86;21534;-66
2022/05/06 10:04:59;;;;;;;3.55;1.32;;;;;;;33.70;10.66;99849.23;1670446;86;21047;-66
2022/05/06 10:07:25;;;;;;;2.58;1.45;;;;;;;32.25;11.27;99835.53;1670318;86;21146;-65
2022/05/06 10:10:01;;;;;;;2.42;1.50;;;;;;;30.69;12.25;99831.82;1670413;86;21934;-66
2022/05/06 10:12:33;;;;;;;4.30;1.50;;;;;;;29.90;12.91;99831.02;1670205;85;21018;-66
2022/05/06 10:15:02;;;;;;;2.95;1.40;;;;;;;29.32;13.51;99831.45;1670361;85;20976;-67
2022/05/06 10:17:54;;;;;;;3.92;1.77;;;;;;;28.85;13.80;99821.02;1670341;86;21038;-65
2022/05/06 10:20:45;;;;;;;2.47;1.60;;;;;;;28.41;14.21;99826.91;1670349;85;21053;-67
2022/05/06 10:23:15;;;;;;;3.80;1.52;;;;;;;27.70;14.56;99839.83;1670592;85;21254;-68
2022/05/06 10:25:49;;;;;;;12.10;2.05;;;;;;;27.12;15.09;99828.80;1670281;86;21051;-67
2022/05/06 10:34:24;;;;;;;4.28;1.35;;;;;;;26.16;16.33;99818.28;1672751;85;20952;-66
2022/05/06 10:36:53;;;;;;;1.67;1.40;;;;;;;26.09;16.89;99819.03;1678799;85;21314;-67
2022/05/06 10:39:38;;;;;;;3.52;1.27;;;;;;;25.92;16.88;99821.62;1678699;85;21002;-65
2022/05/06 10:42:12;;;;;;;1.92;1.72;;;;;;;25.85;17.03;99828.67;1679073;85;21005;-66
2022/05/06 10:44:48;;;;;;;3.87;1.60;;;;;;;25.72;17.15;99814.12;1678906;85;21030;-65
2022/05/06 10:47:23;;;;;;;6.28;2.08;;;;;;;25.63;17.20;99821.13;1678790;85;21012;-69
2022/05/06 10:49:52;;;;;;;3.45;1.50;;;;;;;25.54;17.02;99821.34;1671175;85;21194;-66
2022/05/06 10:52:28;;;;;;;5.12;1.50;;;;;;;25.31;17.24;99816.19;1678754;85;20909;-65
2022/05/06 10:55:03;;;;;;;3.22;1.80;;;;;;;25.14;17.52;99817.12;1678773;85;20996;-68
2022/05/06 10:57:31;;;;;;;3.42;1.70;;;;;;;24.98;17.59;99817.20;1679075;85;20937;-67
2022/05/06 11:00:04;;;;;;;5.12;1.57;;;;;;;24.87;17.80;99804.58;1678779;85;20984;-67
2022/05/06 11:02:35;;;;;;;4.60;1.90;;;;;;;24.85;17.73;99804.82;1678906;85;21317;-66
2022/05/06 11:05:14;;;;;;;6.60;1.87;;;;;;;24.86;17.95;99820.61;1678686;85;20980;-67
2022/05/06 11:07:43;;;;;;;5.03;1.75;;;;;;;24.74;17.91;99798.94;1678709;85;21036;-66
2022/05/06 11:10:16;;;;;;;8.30;2.02;;;;;;;24.57;17.96;99800.92;1678941;85;21094;-68
2022/05/06 11:12:48;;;;;;;4.08;1.60;;;;;;;24.43;18.17;99803.19;1652434;85;20944;-65
2022/05/06 11:15:22;;;;;;;2.75;1.70;;;;;;;24.34;18.34;99798.45;1650328;85;21167;-66
2022/05/06 11:17:49;;;;;;;2.50;2.25;;;;;;;24.21;18.39;99790.66;1671280;85;20901;-69
2022/05/06 11:20:29;;;;;;;6.15;1.75;;;;;;;24.13;18.48;99789.20;1678804;85;20966;-65
2022/05/06 11:23:08;;;;;;;4.50;1.60;;;;;;;24.09;18.66;99781.25;1678717;85;21058;-68
2022/05/06 11:25:36;;;;;;;3.12;1.80;;;;;;;24.11;18.89;99783.73;1678368;85;21101;-69
2022/05/06 11:28:06;;;;;;;3.37;1.75;;;;;;;24.15;19.60;99802.00;1678804;85;21217;-67
2022/05/06 11:30:34;;;;;;;3.52;1.55;;;;;;;24.16;18.90;99778.37;1671542;85;20921;-67
2022/05/06 11:33:04;;;;;;;4.00;1.77;;;;;;;24.10;18.77;99780.72;1670230;86;20984;-68
2022/05/06 11:35:46;;;;;;;2.95;1.80;;;;;;;24.00;18.76;99769.68;1670221;86;21007;-67
2022/05/06 11:38:13;;;;;;;3.87;1.62;;;;;;;23.90;18.84;99759.50;1653245;86;21003;-64
2022/05/06 11:40:40;;;;;;;3.25;1.85;;;;;;;23.88;19.13;99760.30;1652985;86;21260;-66
2022/05/06 11:43:20;;;;;;;3.77;2.12;;;;;;;23.90;19.06;99773.91;1644325;86;21008;-64
2022/05/06 11:48:43;;;;;;;4.87;2.00;;;;;;;24.06;19.35;99762.72;1670448;85;21434;-68
2022/05/06 11:51:30;;;;;;;3.05;2.00;;;;;;;24.02;19.13;99752.05;1670057;85;21422;-69
2022/05/06 11:53:57;;;;;;;4.25;1.80;;;;;;;24.00;19.39;99747.41;1662771;86;21196;-67
2022/05/06 11:56:25;;;;;;;3.92;1.62;;;;;;;24.03;19.49;99750.99;1670201;86;21011;-65
2022/05/06 11:58:55;;;;;;;3.77;1.72;;;;;;;23.96;19.19;99751.16;1670311;86;21074;-66
2022/05/06 12:01:34;;;;;;;2.20;1.60;;;;;;;23.86;19.18;99751.02;1670115;86;20961;-68
2022/05/06 12:04:06;;;;;;;3.58;1.70;;;;;;;23.82;19.28;99740.38;1670127;85;20944;-69
2022/05/06 12:06:38;;;;;;;2.45;2.00;;;;;;;23.79;19.56;99743.59;1670341;86;21261;-69
2022/05/06 12:09:11;;;;;;;5.37;1.62;;;;;;;23.77;19.60;99738.95;1670142;85;20991;-66
2022/05/06 12:11:38;;;;;;;3.60;1.72;;;;;;;23.75;19.75;99755.21;1669806;85;20951;-65
2022/05/06 12:14:17;;;;;;;5.55;1.87;;;;;;;23.74;19.79;99735.90;1670302;86;21014;-67
2022/05/06 12:17:05;;;;;;;3.17;2.12;;;;;;;23.78;19.89;99740.58;1670138;85;21031;-66
2022/05/06 12:19:44;;;;;;;4.60;2.30;;;;;;;23.80;19.62;99730.84;1653103;86;21316;-68
2022/05/06 12:22:17;;;;;;;4.87;1.90;;;;;;;23.78;19.55;99725.64;1670153;85;20967;-67
2022/05/06 12:24:51;;;;;;;3.50;1.67;;;;;;;23.79;19.94;99723.75;1670018;85;20920;-65